sensor_id;sensor_type;location;lat;lon;timestamp;P1;durP1;ratioP1;P2;durP2;ratioP2
62435;SDS011;48480;50.252;18.848;2023-04-12T00:01:12;4.70;;;3.30;;
62435;SDS011;48480;50.252;18.848;2023-04-12T00:03:38;6.90;;;3.70;;
62435;SDS011;48480;50.252;18.848;2023-04-12T00:06:03;6.50;;;3.50;;
62435;SDS011;48480;50.252;18.848;2023-04-12T00:08:31;6.20;;;3.30;;
62435;SDS011;48480;50.252;18.848;2023-04-12T00:11:01;7.50;;;3.50;;
62435;SDS011;48480;50.252;18.848;2023-04-12T00:13:27;7.10;;;3.50;;
62435;SDS011;48480;50.252;18.848;2023-04-12T00:15:54;6.40;;;3.20;;
62435;SDS011;48480;50.252;18.848;2023-04-12T00:18:20;5.60;;;3.40;;
62435;SDS011;48480;50.252;18.848;2023-04-12T00:20:53;4.20;;;3.10;;
62435;SDS011;48480;50.252;18.848;2023-04-12T00:23:19;6.60;;;3.60;;
62435;SDS011;48480;50.252;18.848;2023-04-12T00:25:45;5.10;;;3.50;;
62435;SDS011;48480;50.252;18.848;2023-04-12T00:28:10;6.80;;;3.70;;
62435;SDS011;48480;50.252;18.848;2023-04-12T00:30:36;6.60;;;3.20;;
62435;SDS011;48480;50.252;18.848;2023-04-12T00:33:02;6.60;;;3.10;;
62435;SDS011;48480;50.252;18.848;2023-04-12T00:35:27;6.50;;;3.40;;
62435;SDS011;48480;50.252;18.848;2023-04-12T00:37:53;5.00;;;3.30;;
62435;SDS011;48480;50.252;18.848;2023-04-12T00:40:18;5.30;;;3.50;;
62435;SDS011;48480;50.252;18.848;2023-04-12T00:42:45;7.10;;;3.40;;
62435;SDS011;48480;50.252;18.848;2023-04-12T00:45:11;5.90;;;4.00;;
62435;SDS011;48480;50.252;18.848;2023-04-12T00:47:37;4.10;;;3.20;;
62435;SDS011;48480;50.252;18.848;2023-04-12T00:50:07;6.20;;;3.40;;
62435;SDS011;48480;50.252;18.848;2023-04-12T00:52:34;4.90;;;3.40;;
62435;SDS011;48480;50.252;18.848;2023-04-12T00:55:03;6.80;;;3.90;;
62435;SDS011;48480;50.252;18.848;2023-04-12T00:57:31;6.60;;;4.00;;
62435;SDS011;48480;50.252;18.848;2023-04-12T01:00:06;5.20;;;3.50;;
62435;SDS011;48480;50.252;18.848;2023-04-12T01:02:37;6.10;;;3.90;;
62435;SDS011;48480;50.252;18.848;2023-04-12T01:05:05;5.90;;;3.10;;
62435;SDS011;48480;50.252;18.848;2023-04-12T01:10:27;6.10;;;3.10;;
62435;SDS011;48480;50.252;18.848;2023-04-12T01:13:25;4.90;;;3.10;;
62435;SDS011;48480;50.252;18.848;2023-04-12T01:16:16;4.80;;;2.70;;
62435;SDS011;48480;50.252;18.848;2023-04-12T01:18:52;4.20;;;2.80;;
62435;SDS011;48480;50.252;18.848;2023-04-12T01:26:40;5.00;;;2.80;;
62435;SDS011;48480;50.252;18.848;2023-04-12T01:29:12;4.60;;;2.80;;
62435;SDS011;48480;50.252;18.848;2023-04-12T01:31:41;6.60;;;3.00;;
62435;SDS011;48480;50.252;18.848;2023-04-12T01:34:17;4.80;;;2.70;;
62435;SDS011;48480;50.252;18.848;2023-04-12T01:36:44;6.40;;;3.00;;
62435;SDS011;48480;50.252;18.848;2023-04-12T01:39:13;6.50;;;3.50;;
62435;SDS011;48480;50.252;18.848;2023-04-12T01:41:39;6.70;;;3.60;;
62435;SDS011;48480;50.252;18.848;2023-04-12T01:44:13;5.80;;;3.40;;
62435;SDS011;48480;50.252;18.848;2023-04-12T01:46:40;6.00;;;3.40;;
62435;SDS011;48480;50.252;18.848;2023-04-12T01:49:08;7.10;;;3.70;;
62435;SDS011;48480;50.252;18.848;2023-04-12T01:51:55;4.60;;;3.00;;
62435;SDS011;48480;50.252;18.848;2023-04-12T01:54:26;7.70;;;4.30;;
62435;SDS011;48480;50.252;18.848;2023-04-12T01:57:01;7.20;;;4.10;;
62435;SDS011;48480;50.252;18.848;2023-04-12T01:59:31;5.10;;;3.50;;
62435;SDS011;48480;50.252;18.848;2023-04-12T02:02:02;6.50;;;3.60;;
62435;SDS011;48480;50.252;18.848;2023-04-12T02:04:27;5.20;;;3.60;;
62435;SDS011;48480;50.252;18.848;2023-04-12T02:06:53;5.40;;;3.10;;
62435;SDS011;48480;50.252;18.848;2023-04-12T02:09:20;6.60;;;3.30;;
62435;SDS011;48480;50.252;18.848;2023-04-12T02:11:46;5.90;;;3.70;;
62435;SDS011;48480;50.252;18.848;2023-04-12T02:14:13;5.70;;;3.70;;
62435;SDS011;48480;50.252;18.848;2023-04-12T02:16:39;6.40;;;3.70;;
62435;SDS011;48480;50.252;18.848;2023-04-12T02:19:06;4.60;;;3.40;;
62435;SDS011;48480;50.252;18.848;2023-04-12T02:21:38;5.60;;;3.70;;
62435;SDS011;48480;50.252;18.848;2023-04-12T02:24:08;5.80;;;3.40;;
62435;SDS011;48480;50.252;18.848;2023-04-12T02:26:36;5.50;;;3.60;;
62435;SDS011;48480;50.252;18.848;2023-04-12T02:29:05;7.60;;;3.70;;
62435;SDS011;48480;50.252;18.848;2023-04-12T02:31:33;4.80;;;3.10;;
62435;SDS011;48480;50.252;18.848;2023-04-12T02:34:00;5.10;;;3.30;;
62435;SDS011;48480;50.252;18.848;2023-04-12T02:36:27;4.40;;;3.50;;
62435;SDS011;48480;50.252;18.848;2023-04-12T02:38:53;5.20;;;3.30;;
62435;SDS011;48480;50.252;18.848;2023-04-12T02:41:20;7.80;;;3.40;;
62435;SDS011;48480;50.252;18.848;2023-04-12T02:43:46;6.80;;;3.80;;
62435;SDS011;48480;50.252;18.848;2023-04-12T02:46:17;7.30;;;3.90;;
62435;SDS011;48480;50.252;18.848;2023-04-12T02:48:46;9.20;;;3.90;;
62435;SDS011;48480;50.252;18.848;2023-04-12T02:51:12;8.00;;;4.30;;
62435;SDS011;48480;50.252;18.848;2023-04-12T02:53:37;7.20;;;3.70;;
62435;SDS011;48480;50.252;18.848;2023-04-12T02:56:03;6.00;;;3.40;;
62435;SDS011;48480;50.252;18.848;2023-04-12T02:58:30;6.70;;;3.70;;
62435;SDS011;48480;50.252;18.848;2023-04-12T03:00:58;5.40;;;3.40;;
62435;SDS011;48480;50.252;18.848;2023-04-12T03:03:31;5.90;;;3.60;;
62435;SDS011;48480;50.252;18.848;2023-04-12T03:05:58;7.90;;;3.60;;
62435;SDS011;48480;50.252;18.848;2023-04-12T03:08:24;5.00;;;3.30;;
62435;SDS011;48480;50.252;18.848;2023-04-12T03:10:50;5.50;;;3.60;;
62435;SDS011;48480;50.252;18.848;2023-04-12T03:13:15;7.20;;;3.30;;
62435;SDS011;48480;50.252;18.848;2023-04-12T03:15:41;6.10;;;3.70;;
62435;SDS011;48480;50.252;18.848;2023-04-12T03:18:09;6.30;;;3.80;;
62435;SDS011;48480;50.252;18.848;2023-04-12T03:20:37;5.00;;;3.30;;
62435;SDS011;48480;50.252;18.848;2023-04-12T03:23:05;6.80;;;3.70;;
62435;SDS011;48480;50.252;18.848;2023-04-12T03:25:31;4.80;;;3.50;;
62435;SDS011;48480;50.252;18.848;2023-04-12T03:27:57;6.80;;;3.50;;
62435;SDS011;48480;50.252;18.848;2023-04-12T03:30:22;6.80;;;3.60;;
62435;SDS011;48480;50.252;18.848;2023-04-12T03:32:48;6.40;;;3.60;;
62435;SDS011;48480;50.252;18.848;2023-04-12T03:35:13;6.90;;;3.40;;
62435;SDS011;48480;50.252;18.848;2023-04-12T03:37:40;8.70;;;3.80;;
62435;SDS011;48480;50.252;18.848;2023-04-12T03:40:07;7.30;;;4.10;;
62435;SDS011;48480;50.252;18.848;2023-04-12T03:42:33;6.40;;;4.20;;
62435;SDS011;48480;50.252;18.848;2023-04-12T03:44:59;7.60;;;3.70;;
62435;SDS011;48480;50.252;18.848;2023-04-12T03:47:24;6.70;;;3.40;;
62435;SDS011;48480;50.252;18.848;2023-04-12T03:49:50;7.10;;;3.80;;
62435;SDS011;48480;50.252;18.848;2023-04-12T03:52:19;7.50;;;4.10;;
62435;SDS011;48480;50.252;18.848;2023-04-12T03:54:44;7.20;;;4.20;;
62435;SDS011;48480;50.252;18.848;2023-04-12T03:57:10;6.20;;;4.00;;
62435;SDS011;48480;50.252;18.848;2023-04-12T03:59:35;8.70;;;4.60;;
62435;SDS011;48480;50.252;18.848;2023-04-12T04:02:01;9.70;;;4.60;;
62435;SDS011;48480;50.252;18.848;2023-04-12T04:07:14;8.90;;;4.30;;
62435;SDS011;48480;50.252;18.848;2023-04-12T04:09:47;6.40;;;4.40;;
62435;SDS011;48480;50.252;18.848;2023-04-12T04:12:24;8.00;;;5.00;;
62435;SDS011;48480;50.252;18.848;2023-04-12T04:14:52;7.00;;;4.30;;
62435;SDS011;48480;50.252;18.848;2023-04-12T04:17:19;8.50;;;4.50;;
62435;SDS011;48480;50.252;18.848;2023-04-12T04:19:49;6.60;;;4.30;;
62435;SDS011;48480;50.252;18.848;2023-04-12T04:22:16;6.50;;;3.90;;
62435;SDS011;48480;50.252;18.848;2023-04-12T04:24:56;6.40;;;4.30;;
62435;SDS011;48480;50.252;18.848;2023-04-12T04:30:13;7.50;;;4.70;;
62435;SDS011;48480;50.252;18.848;2023-04-12T04:32:42;8.90;;;5.10;;
62435;SDS011;48480;50.252;18.848;2023-04-12T04:35:10;7.40;;;4.60;;
62435;SDS011;48480;50.252;18.848;2023-04-12T04:37:42;9.10;;;5.20;;
62435;SDS011;48480;50.252;18.848;2023-04-12T04:40:13;7.80;;;4.40;;
62435;SDS011;48480;50.252;18.848;2023-04-12T04:42:41;6.90;;;4.80;;
62435;SDS011;48480;50.252;18.848;2023-04-12T04:45:10;8.80;;;4.40;;
62435;SDS011;48480;50.252;18.848;2023-04-12T04:47:44;8.10;;;4.40;;
62435;SDS011;48480;50.252;18.848;2023-04-12T04:50:12;5.90;;;4.70;;
62435;SDS011;48480;50.252;18.848;2023-04-12T04:52:39;8.10;;;4.70;;
62435;SDS011;48480;50.252;18.848;2023-04-12T04:55:06;7.80;;;5.20;;
62435;SDS011;48480;50.252;18.848;2023-04-12T04:57:36;9.10;;;5.50;;
62435;SDS011;48480;50.252;18.848;2023-04-12T05:00:03;8.60;;;5.50;;
62435;SDS011;48480;50.252;18.848;2023-04-12T05:02:37;8.40;;;5.20;;
62435;SDS011;48480;50.252;18.848;2023-04-12T05:05:07;9.60;;;5.30;;
62435;SDS011;48480;50.252;18.848;2023-04-12T05:07:34;6.90;;;4.60;;
62435;SDS011;48480;50.252;18.848;2023-04-12T05:10:02;9.00;;;5.10;;
62435;SDS011;48480;50.252;18.848;2023-04-12T05:12:31;7.40;;;4.70;;
62435;SDS011;48480;50.252;18.848;2023-04-12T05:14:58;10.50;;;4.90;;
62435;SDS011;48480;50.252;18.848;2023-04-12T05:17:24;7.30;;;4.90;;
62435;SDS011;48480;50.252;18.848;2023-04-12T05:19:51;8.10;;;5.00;;
62435;SDS011;48480;50.252;18.848;2023-04-12T05:22:20;8.90;;;5.60;;
62435;SDS011;48480;50.252;18.848;2023-04-12T05:24:46;8.60;;;5.10;;
62435;SDS011;48480;50.252;18.848;2023-04-12T05:27:15;8.30;;;5.50;;
62435;SDS011;48480;50.252;18.848;2023-04-12T05:29:41;8.50;;;5.20;;
62435;SDS011;48480;50.252;18.848;2023-04-12T05:32:08;9.30;;;5.90;;
62435;SDS011;48480;50.252;18.848;2023-04-12T05:34:35;7.20;;;4.60;;
62435;SDS011;48480;50.252;18.848;2023-04-12T05:37:04;7.50;;;4.50;;
62435;SDS011;48480;50.252;18.848;2023-04-12T05:39:32;6.80;;;4.90;;
62435;SDS011;48480;50.252;18.848;2023-04-12T05:41:58;7.80;;;4.90;;
62435;SDS011;48480;50.252;18.848;2023-04-12T05:44:24;6.20;;;4.70;;
62435;SDS011;48480;50.252;18.848;2023-04-12T05:46:51;6.10;;;4.30;;
62435;SDS011;48480;50.252;18.848;2023-04-12T05:49:16;11.50;;;4.70;;
62435;SDS011;48480;50.252;18.848;2023-04-12T05:51:42;12.70;;;5.30;;
62435;SDS011;48480;50.252;18.848;2023-04-12T05:54:07;10.50;;;4.90;;
62435;SDS011;48480;50.252;18.848;2023-04-12T05:56:33;7.80;;;5.20;;
62435;SDS011;48480;50.252;18.848;2023-04-12T05:58:58;8.90;;;5.50;;
62435;SDS011;48480;50.252;18.848;2023-04-12T06:01:27;11.40;;;5.60;;
62435;SDS011;48480;50.252;18.848;2023-04-12T06:03:56;8.60;;;5.50;;
62435;SDS011;48480;50.252;18.848;2023-04-12T06:06:22;7.10;;;5.40;;
62435;SDS011;48480;50.252;18.848;2023-04-12T06:08:48;9.50;;;5.70;;
62435;SDS011;48480;50.252;18.848;2023-04-12T06:11:13;9.70;;;5.80;;
62435;SDS011;48480;50.252;18.848;2023-04-12T06:13:43;9.20;;;5.70;;
62435;SDS011;48480;50.252;18.848;2023-04-12T06:16:09;8.20;;;5.80;;
62435;SDS011;48480;50.252;18.848;2023-04-12T06:18:35;15.70;;;10.00;;
62435;SDS011;48480;50.252;18.848;2023-04-12T06:21:01;8.90;;;5.50;;
62435;SDS011;48480;50.252;18.848;2023-04-12T06:23:27;10.30;;;6.30;;
62435;SDS011;48480;50.252;18.848;2023-04-12T06:25:52;9.70;;;6.10;;
62435;SDS011;48480;50.252;18.848;2023-04-12T06:28:18;9.30;;;6.50;;
62435;SDS011;48480;50.252;18.848;2023-04-12T06:30:45;8.40;;;6.70;;
62435;SDS011;48480;50.252;18.848;2023-04-12T06:33:11;7.20;;;5.60;;
62435;SDS011;48480;50.252;18.848;2023-04-12T06:35:37;7.00;;;5.30;;
62435;SDS011;48480;50.252;18.848;2023-04-12T06:38:02;11.40;;;7.40;;
62435;SDS011;48480;50.252;18.848;2023-04-12T06:40:28;8.60;;;5.50;;
62435;SDS011;48480;50.252;18.848;2023-04-12T06:42:54;9.60;;;5.50;;
62435;SDS011;48480;50.252;18.848;2023-04-12T06:45:20;8.20;;;5.90;;
62435;SDS011;48480;50.252;18.848;2023-04-12T06:47:47;10.10;;;6.30;;
62435;SDS011;48480;50.252;18.848;2023-04-12T06:50:12;7.70;;;5.90;;
62435;SDS011;48480;50.252;18.848;2023-04-12T06:52:38;8.70;;;5.90;;
62435;SDS011;48480;50.252;18.848;2023-04-12T06:55:04;10.10;;;6.70;;
62435;SDS011;48480;50.252;18.848;2023-04-12T06:57:31;7.00;;;4.80;;
62435;SDS011;48480;50.252;18.848;2023-04-12T06:59:56;9.00;;;6.20;;
62435;SDS011;48480;50.252;18.848;2023-04-12T07:02:22;9.30;;;5.60;;
62435;SDS011;48480;50.252;18.848;2023-04-12T07:04:51;7.00;;;4.80;;
62435;SDS011;48480;50.252;18.848;2023-04-12T07:07:18;5.50;;;4.10;;
62435;SDS011;48480;50.252;18.848;2023-04-12T07:09:44;5.60;;;4.60;;
62435;SDS011;48480;50.252;18.848;2023-04-12T07:12:11;7.80;;;5.00;;
62435;SDS011;48480;50.252;18.848;2023-04-12T07:14:37;7.40;;;5.20;;
62435;SDS011;48480;50.252;18.848;2023-04-12T07:17:03;8.70;;;4.50;;
62435;SDS011;48480;50.252;18.848;2023-04-12T07:19:29;7.90;;;4.80;;
62435;SDS011;48480;50.252;18.848;2023-04-12T07:21:55;6.70;;;4.10;;
62435;SDS011;48480;50.252;18.848;2023-04-12T07:24:21;8.10;;;4.30;;
62435;SDS011;48480;50.252;18.848;2023-04-12T07:26:51;6.60;;;4.20;;
62435;SDS011;48480;50.252;18.848;2023-04-12T07:29:18;6.10;;;4.00;;
62435;SDS011;48480;50.252;18.848;2023-04-12T07:31:44;7.10;;;4.00;;
62435;SDS011;48480;50.252;18.848;2023-04-12T07:34:10;6.40;;;4.00;;
62435;SDS011;48480;50.252;18.848;2023-04-12T07:36:36;9.10;;;5.40;;
62435;SDS011;48480;50.252;18.848;2023-04-12T07:39:02;4.80;;;3.80;;
62435;SDS011;48480;50.252;18.848;2023-04-12T07:41:27;6.20;;;3.80;;
62435;SDS011;48480;50.252;18.848;2023-04-12T07:43:53;6.20;;;3.40;;
62435;SDS011;48480;50.252;18.848;2023-04-12T07:46:19;6.00;;;4.10;;
62435;SDS011;48480;50.252;18.848;2023-04-12T07:48:45;6.50;;;3.80;;
62435;SDS011;48480;50.252;18.848;2023-04-12T07:51:11;8.00;;;4.30;;
62435;SDS011;48480;50.252;18.848;2023-04-12T07:53:37;5.90;;;3.40;;
62435;SDS011;48480;50.252;18.848;2023-04-12T07:56:03;5.60;;;3.80;;
62435;SDS011;48480;50.252;18.848;2023-04-12T07:58:31;4.70;;;3.50;;
62435;SDS011;48480;50.252;18.848;2023-04-12T08:00:57;5.80;;;4.00;;
62435;SDS011;48480;50.252;18.848;2023-04-12T08:03:23;5.70;;;4.50;;
62435;SDS011;48480;50.252;18.848;2023-04-12T08:05:48;6.80;;;4.40;;
62435;SDS011;48480;50.252;18.848;2023-04-12T08:08:18;8.50;;;4.50;;
62435;SDS011;48480;50.252;18.848;2023-04-12T08:10:47;5.50;;;4.00;;
62435;SDS011;48480;50.252;18.848;2023-04-12T08:13:13;5.10;;;4.00;;
62435;SDS011;48480;50.252;18.848;2023-04-12T08:15:39;7.70;;;4.60;;
62435;SDS011;48480;50.252;18.848;2023-04-12T08:18:04;7.40;;;4.80;;
62435;SDS011;48480;50.252;18.848;2023-04-12T08:20:30;6.50;;;4.60;;
62435;SDS011;48480;50.252;18.848;2023-04-12T08:22:57;9.80;;;6.00;;
62435;SDS011;48480;50.252;18.848;2023-04-12T08:25:22;7.20;;;5.20;;
62435;SDS011;48480;50.252;18.848;2023-04-12T08:27:49;8.70;;;5.00;;
62435;SDS011;48480;50.252;18.848;2023-04-12T08:30:15;5.40;;;4.10;;
62435;SDS011;48480;50.252;18.848;2023-04-12T08:32:42;6.10;;;4.30;;
62435;SDS011;48480;50.252;18.848;2023-04-12T08:35:08;6.10;;;4.00;;
62435;SDS011;48480;50.252;18.848;2023-04-12T08:37:34;7.50;;;4.60;;
62435;SDS011;48480;50.252;18.848;2023-04-12T08:40:06;6.50;;;4.50;;
62435;SDS011;48480;50.252;18.848;2023-04-12T08:42:33;7.80;;;5.10;;
62435;SDS011;48480;50.252;18.848;2023-04-12T08:45:06;8.10;;;4.50;;
62435;SDS011;48480;50.252;18.848;2023-04-12T08:47:34;8.10;;;4.50;;
62435;SDS011;48480;50.252;18.848;2023-04-12T08:50:02;7.90;;;4.40;;
62435;SDS011;48480;50.252;18.848;2023-04-12T08:52:31;7.60;;;4.70;;
62435;SDS011;48480;50.252;18.848;2023-04-12T08:55:00;5.40;;;3.90;;
62435;SDS011;48480;50.252;18.848;2023-04-12T08:57:30;5.00;;;4.20;;
62435;SDS011;48480;50.252;18.848;2023-04-12T08:59:59;8.10;;;5.20;;
62435;SDS011;48480;50.252;18.848;2023-04-12T09:02:27;6.20;;;4.00;;
62435;SDS011;48480;50.252;18.848;2023-04-12T09:04:52;6.50;;;4.40;;
62435;SDS011;48480;50.252;18.848;2023-04-12T09:07:19;5.00;;;4.00;;
62435;SDS011;48480;50.252;18.848;2023-04-12T09:09:52;5.00;;;3.80;;
62435;SDS011;48480;50.252;18.848;2023-04-12T09:12:18;4.40;;;3.90;;
62435;SDS011;48480;50.252;18.848;2023-04-12T09:14:46;6.80;;;3.90;;
62435;SDS011;48480;50.252;18.848;2023-04-12T09:17:25;4.50;;;3.60;;
62435;SDS011;48480;50.252;18.848;2023-04-12T09:19:52;5.70;;;3.40;;
62435;SDS011;48480;50.252;18.848;2023-04-12T09:22:31;6.30;;;3.50;;
62435;SDS011;48480;50.252;18.848;2023-04-12T09:25:00;5.40;;;3.50;;
62435;SDS011;48480;50.252;18.848;2023-04-12T09:27:26;6.90;;;3.70;;
62435;SDS011;48480;50.252;18.848;2023-04-12T09:30:07;7.40;;;4.10;;
62435;SDS011;48480;50.252;18.848;2023-04-12T09:32:33;5.80;;;3.90;;
62435;SDS011;48480;50.252;18.848;2023-04-12T09:34:59;4.40;;;3.40;;
62435;SDS011;48480;50.252;18.848;2023-04-12T09:37:26;6.00;;;4.00;;
62435;SDS011;48480;50.252;18.848;2023-04-12T09:42:28;6.10;;;3.60;;
62435;SDS011;48480;50.252;18.848;2023-04-12T09:44:55;4.10;;;2.90;;
62435;SDS011;48480;50.252;18.848;2023-04-12T09:47:38;6.30;;;3.40;;
62435;SDS011;48480;50.252;18.848;2023-04-12T09:50:06;5.30;;;3.60;;
62435;SDS011;48480;50.252;18.848;2023-04-12T09:52:36;3.70;;;3.40;;
62435;SDS011;48480;50.252;18.848;2023-04-12T09:55:05;4.40;;;3.50;;
62435;SDS011;48480;50.252;18.848;2023-04-12T09:57:35;6.30;;;3.90;;
62435;SDS011;48480;50.252;18.848;2023-04-12T10:00:06;6.80;;;3.60;;
62435;SDS011;48480;50.252;18.848;2023-04-12T10:02:37;5.00;;;3.40;;
62435;SDS011;48480;50.252;18.848;2023-04-12T10:05:06;5.70;;;3.50;;
62435;SDS011;48480;50.252;18.848;2023-04-12T10:07:35;4.50;;;3.00;;
62435;SDS011;48480;50.252;18.848;2023-04-12T10:10:02;5.20;;;3.50;;
62435;SDS011;48480;50.252;18.848;2023-04-12T10:12:30;5.10;;;3.80;;
62435;SDS011;48480;50.252;18.848;2023-04-12T10:14:56;4.90;;;3.80;;
62435;SDS011;48480;50.252;18.848;2023-04-12T10:17:22;5.10;;;3.50;;
62435;SDS011;48480;50.252;18.848;2023-04-12T10:19:51;4.20;;;3.10;;
62435;SDS011;48480;50.252;18.848;2023-04-12T10:22:17;3.80;;;2.80;;
62435;SDS011;48480;50.252;18.848;2023-04-12T10:24:43;4.10;;;3.20;;
62435;SDS011;48480;50.252;18.848;2023-04-12T10:27:09;3.90;;;3.20;;
62435;SDS011;48480;50.252;18.848;2023-04-12T10:29:37;4.40;;;3.00;;
62435;SDS011;48480;50.252;18.848;2023-04-12T10:32:17;4.90;;;2.90;;
62435;SDS011;48480;50.252;18.848;2023-04-12T10:34:51;5.10;;;2.90;;
62435;SDS011;48480;50.252;18.848;2023-04-12T10:37:18;3.90;;;3.20;;
62435;SDS011;48480;50.252;18.848;2023-04-12T10:39:50;4.60;;;2.90;;
62435;SDS011;48480;50.252;18.848;2023-04-12T10:44:44;4.00;;;3.00;;
62435;SDS011;48480;50.252;18.848;2023-04-12T10:47:10;3.20;;;2.80;;
62435;SDS011;48480;50.252;18.848;2023-04-12T10:49:36;3.30;;;2.40;;
62435;SDS011;48480;50.252;18.848;2023-04-12T10:54:29;4.90;;;2.60;;
62435;SDS011;48480;50.252;18.848;2023-04-12T10:56:56;3.70;;;2.40;;
62435;SDS011;48480;50.252;18.848;2023-04-12T10:59:22;6.40;;;2.90;;
62435;SDS011;48480;50.252;18.848;2023-04-12T11:04:37;5.70;;;3.20;;
62435;SDS011;48480;50.252;18.848;2023-04-12T11:07:07;5.00;;;2.90;;
62435;SDS011;48480;50.252;18.848;2023-04-12T11:14:35;3.90;;;2.60;;
62435;SDS011;48480;50.252;18.848;2023-04-12T11:19:38;4.90;;;2.30;;
62435;SDS011;48480;50.252;18.848;2023-04-12T11:22:08;5.50;;;2.80;;
62435;SDS011;48480;50.252;18.848;2023-04-12T11:24:36;4.80;;;2.80;;
62435;SDS011;48480;50.252;18.848;2023-04-12T11:27:03;3.40;;;2.40;;
62435;SDS011;48480;50.252;18.848;2023-04-12T11:29:30;3.00;;;2.10;;
62435;SDS011;48480;50.252;18.848;2023-04-12T11:32:01;2.40;;;2.00;;
62435;SDS011;48480;50.252;18.848;2023-04-12T11:34:31;4.30;;;2.70;;
62435;SDS011;48480;50.252;18.848;2023-04-12T11:36:58;3.30;;;2.60;;
62435;SDS011;48480;50.252;18.848;2023-04-12T11:39:24;4.60;;;2.70;;
62435;SDS011;48480;50.252;18.848;2023-04-12T11:41:51;3.50;;;2.40;;
62435;SDS011;48480;50.252;18.848;2023-04-12T11:44:18;2.80;;;1.90;;
62435;SDS011;48480;50.252;18.848;2023-04-12T11:46:46;3.10;;;2.30;;
62435;SDS011;48480;50.252;18.848;2023-04-12T11:49:16;3.20;;;2.10;;
62435;SDS011;48480;50.252;18.848;2023-04-12T11:51:44;3.10;;;2.20;;
62435;SDS011;48480;50.252;18.848;2023-04-12T11:54:10;2.80;;;2.40;;
62435;SDS011;48480;50.252;18.848;2023-04-12T11:56:37;3.50;;;2.00;;
62435;SDS011;48480;50.252;18.848;2023-04-12T11:59:03;3.60;;;2.40;;
62435;SDS011;48480;50.252;18.848;2023-04-12T12:01:29;3.00;;;2.20;;
62435;SDS011;48480;50.252;18.848;2023-04-12T12:03:55;3.40;;;2.10;;
62435;SDS011;48480;50.252;18.848;2023-04-12T12:06:22;2.20;;;1.60;;
62435;SDS011;48480;50.252;18.848;2023-04-12T12:08:49;3.20;;;2.50;;
62435;SDS011;48480;50.252;18.848;2023-04-12T12:11:15;2.80;;;1.90;;
62435;SDS011;48480;50.252;18.848;2023-04-12T12:13:45;2.90;;;1.90;;
62435;SDS011;48480;50.252;18.848;2023-04-12T12:16:15;2.90;;;2.10;;
62435;SDS011;48480;50.252;18.848;2023-04-12T12:18:42;2.60;;;1.80;;
62435;SDS011;48480;50.252;18.848;2023-04-12T12:21:08;5.80;;;1.90;;
62435;SDS011;48480;50.252;18.848;2023-04-12T12:23:36;4.40;;;2.20;;
62435;SDS011;48480;50.252;18.848;2023-04-12T12:26:09;2.50;;;1.40;;
62435;SDS011;48480;50.252;18.848;2023-04-12T12:28:55;3.40;;;2.10;;
62435;SDS011;48480;50.252;18.848;2023-04-12T12:31:24;3.00;;;1.90;;
62435;SDS011;48480;50.252;18.848;2023-04-12T12:36:27;3.50;;;2.20;;
62435;SDS011;48480;50.252;18.848;2023-04-12T12:41:34;4.10;;;2.40;;
62435;SDS011;48480;50.252;18.848;2023-04-12T12:44:00;3.10;;;2.20;;
62435;SDS011;48480;50.252;18.848;2023-04-12T12:46:27;5.20;;;2.40;;
62435;SDS011;48480;50.252;18.848;2023-04-12T12:48:53;3.10;;;1.80;;
62435;SDS011;48480;50.252;18.848;2023-04-12T12:51:19;4.80;;;2.10;;
62435;SDS011;48480;50.252;18.848;2023-04-12T12:53:45;2.90;;;2.20;;
62435;SDS011;48480;50.252;18.848;2023-04-12T12:56:11;3.80;;;2.10;;
62435;SDS011;48480;50.252;18.848;2023-04-12T12:58:39;4.70;;;3.20;;
62435;SDS011;48480;50.252;18.848;2023-04-12T13:01:05;6.10;;;2.20;;
62435;SDS011;48480;50.252;18.848;2023-04-12T13:03:31;4.30;;;2.40;;
62435;SDS011;48480;50.252;18.848;2023-04-12T13:05:56;3.90;;;2.50;;
62435;SDS011;48480;50.252;18.848;2023-04-12T13:08:22;4.00;;;2.10;;
62435;SDS011;48480;50.252;18.848;2023-04-12T13:10:51;2.50;;;2.20;;
62435;SDS011;48480;50.252;18.848;2023-04-12T13:13:17;4.10;;;2.60;;
62435;SDS011;48480;50.252;18.848;2023-04-12T13:15:43;2.80;;;2.20;;
62435;SDS011;48480;50.252;18.848;2023-04-12T13:18:11;3.40;;;2.70;;
62435;SDS011;48480;50.252;18.848;2023-04-12T13:20:39;3.90;;;2.70;;
62435;SDS011;48480;50.252;18.848;2023-04-12T13:23:06;4.00;;;2.50;;
62435;SDS011;48480;50.252;18.848;2023-04-12T13:25:31;3.90;;;2.70;;
62435;SDS011;48480;50.252;18.848;2023-04-12T13:27:57;3.90;;;2.80;;
62435;SDS011;48480;50.252;18.848;2023-04-12T13:30:22;3.90;;;2.40;;
62435;SDS011;48480;50.252;18.848;2023-04-12T13:32:48;2.90;;;2.40;;
62435;SDS011;48480;50.252;18.848;2023-04-12T13:35:13;2.90;;;2.20;;
62435;SDS011;48480;50.252;18.848;2023-04-12T13:37:39;5.40;;;2.90;;
62435;SDS011;48480;50.252;18.848;2023-04-12T13:40:06;6.00;;;2.50;;
62435;SDS011;48480;50.252;18.848;2023-04-12T13:42:32;4.10;;;2.50;;
62435;SDS011;48480;50.252;18.848;2023-04-12T13:44:58;4.30;;;2.50;;
62435;SDS011;48480;50.252;18.848;2023-04-12T13:47:24;4.70;;;2.50;;
62435;SDS011;48480;50.252;18.848;2023-04-12T13:49:51;2.90;;;2.40;;
62435;SDS011;48480;50.252;18.848;2023-04-12T13:52:16;5.00;;;2.50;;
62435;SDS011;48480;50.252;18.848;2023-04-12T13:54:42;3.60;;;2.60;;
62435;SDS011;48480;50.252;18.848;2023-04-12T13:57:14;4.40;;;2.60;;
62435;SDS011;48480;50.252;18.848;2023-04-12T13:59:46;3.80;;;2.60;;
62435;SDS011;48480;50.252;18.848;2023-04-12T14:02:12;4.30;;;2.60;;
62435;SDS011;48480;50.252;18.848;2023-04-12T14:04:48;4.80;;;2.70;;
62435;SDS011;48480;50.252;18.848;2023-04-12T14:07:21;4.50;;;2.80;;
62435;SDS011;48480;50.252;18.848;2023-04-12T14:09:46;3.20;;;2.60;;
62435;SDS011;48480;50.252;18.848;2023-04-12T14:12:12;5.40;;;3.20;;
62435;SDS011;48480;50.252;18.848;2023-04-12T14:14:39;3.50;;;2.70;;
62435;SDS011;48480;50.252;18.848;2023-04-12T14:17:05;6.20;;;5.40;;
62435;SDS011;48480;50.252;18.848;2023-04-12T14:19:30;7.80;;;6.90;;
62435;SDS011;48480;50.252;18.848;2023-04-12T14:21:55;5.20;;;2.90;;
62435;SDS011;48480;50.252;18.848;2023-04-12T14:24:21;5.10;;;3.50;;
62435;SDS011;48480;50.252;18.848;2023-04-12T14:26:47;4.60;;;3.10;;
62435;SDS011;48480;50.252;18.848;2023-04-12T14:29:14;3.60;;;2.90;;
62435;SDS011;48480;50.252;18.848;2023-04-12T14:31:40;3.90;;;2.90;;
62435;SDS011;48480;50.252;18.848;2023-04-12T14:34:06;4.90;;;3.20;;
62435;SDS011;48480;50.252;18.848;2023-04-12T14:36:35;5.90;;;3.60;;
62435;SDS011;48480;50.252;18.848;2023-04-12T14:39:01;4.90;;;3.40;;
62435;SDS011;48480;50.252;18.848;2023-04-12T14:41:28;5.70;;;3.50;;
62435;SDS011;48480;50.252;18.848;2023-04-12T14:43:54;6.00;;;3.20;;
62435;SDS011;48480;50.252;18.848;2023-04-12T14:46:20;5.00;;;3.30;;
62435;SDS011;48480;50.252;18.848;2023-04-12T14:48:45;5.10;;;3.70;;
62435;SDS011;48480;50.252;18.848;2023-04-12T14:51:11;7.90;;;3.90;;
62435;SDS011;48480;50.252;18.848;2023-04-12T14:53:36;5.40;;;3.30;;
62435;SDS011;48480;50.252;18.848;2023-04-12T14:56:02;5.70;;;3.20;;
62435;SDS011;48480;50.252;18.848;2023-04-12T14:58:28;4.50;;;2.90;;
62435;SDS011;48480;50.252;18.848;2023-04-12T15:00:56;6.60;;;3.40;;
62435;SDS011;48480;50.252;18.848;2023-04-12T15:03:22;4.70;;;2.90;;
62435;SDS011;48480;50.252;18.848;2023-04-12T15:05:50;4.90;;;2.80;;
62435;SDS011;48480;50.252;18.848;2023-04-12T15:08:16;5.40;;;3.10;;
62435;SDS011;48480;50.252;18.848;2023-04-12T15:10:44;6.30;;;2.90;;
62435;SDS011;48480;50.252;18.848;2023-04-12T15:13:09;5.00;;;3.00;;